Time;durP1;ratioP1;P1;durP2;ratioP2;P2;SDS_P1;SDS_P2;PMS_P1;PMS_P2;Temp;Humidity;BMP_temperature;BMP_pressure;BME280_temperature;BME280_humidity;BME280_pressure;Samples;Min_cycle;Max_cycle;Signal;HPM_P1;HPM_P2
2023/12/29 00:00:19;;;;;;;3.77;2.20;;;;;;;-145.69;58.71;52226.53;4920407;29;20208;-79
2023/12/29 00:02:45;;;;;;;3.67;2.03;;;;;;;-145.69;58.31;52226.53;4920260;29;20215;-80
2023/12/29 00:05:15;;;;;;;2.37;1.70;;;;;;;-145.69;58.48;52224.56;4919899;29;20235;-79
2023/12/29 00:07:41;;;;;;;3.10;1.83;;;;;;;-145.69;58.89;52208.72;4920384;29;20215;-79
2023/12/29 00:10:08;;;;;;;2.87;1.83;;;;;;;-145.69;59.25;52242.38;4919595;29;20240;-79
2023/12/29 00:12:35;;;;;;;3.23;1.80;;;;;;;-145.69;59.30;52266.16;4920167;29;20207;-79
2023/12/29 00:15:02;;;;;;;4.47;2.17;;;;;;;-145.69;57.97;52234.47;4920048;29;20218;-80
2023/12/29 00:17:30;;;;;;;2.87;1.97;;;;;;;-145.69;56.94;52190.91;4919900;29;20210;-79
2023/12/29 00:19:56;;;;;;;2.47;1.70;;;;;;;-145.69;57.84;52230.50;4919467;29;20212;-79
2023/12/29 00:22:25;;;;;;;4.00;2.10;;;;;;;-145.69;57.33;52192.88;4919395;29;20223;-79
2023/12/29 00:24:51;;;;;;;8.17;3.10;;;;;;;-145.69;56.67;52206.75;4919981;29;20208;-79
2023/12/29 00:27:20;;;;;;;3.23;1.80;;;;;;;-145.69;57.17;52194.88;4919628;29;20204;-79
2023/12/29 00:29:46;;;;;;;2.93;1.90;;;;;;;-145.69;57.10;52226.53;4919649;29;20549;-79
2023/12/29 00:32:13;;;;;;;2.73;2.10;;;;;;;-145.69;56.16;52208.72;4919766;29;20215;-79
2023/12/29 00:34:41;;;;;;;2.37;1.80;;;;;;;-145.69;56.63;52210.72;4919100;29;20683;-79
2023/12/29 00:37:08;;;;;;;2.97;1.90;;;;;;;-145.69;56.69;52194.88;4919784;29;20271;-80
2023/12/29 00:39:38;;;;;;;3.03;1.90;;;;;;;-145.69;57.01;52200.81;4919846;29;20234;-80
2023/12/29 00:42:07;;;;;;;3.17;2.03;;;;;;;-145.69;56.37;52206.75;4919776;29;20219;-79
2023/12/29 00:44:36;;;;;;;4.23;2.07;;;;;;;-145.69;56.04;52222.59;4919135;29;20211;-79
2023/12/29 00:47:02;;;;;;;6.23;2.20;;;;;;;-145.69;55.39;52244.38;4919199;29;20632;-80
2023/12/29 00:49:33;;;;;;;3.30;2.40;;;;;;;-145.69;55.31;52194.88;4919247;29;20567;-80
2023/12/29 00:52:02;;;;;;;3.10;2.07;;;;;;;-145.69;55.26;52179.03;4919230;29;20210;-80
2023/12/29 00:54:29;;;;;;;3.17;2.03;;;;;;;-145.69;54.99;52222.59;4919486;29;20840;-80
2023/12/29 00:56:55;;;;;;;5.27;2.30;;;;;;;-145.69;54.51;52206.75;4919424;29;20230;-80
2023/12/29 00:59:22;;;;;;;2.80;2.20;;;;;;;-145.69;54.26;52204.75;4918839;29;20219;-79
2023/12/29 01:01:49;;;;;;;4.30;2.30;;;;;;;-145.69;54.39;52232.50;4918372;29;20208;-79
2023/12/29 01:04:15;;;;;;;3.63;2.17;;;;;;;-145.69;54.23;52206.75;4918768;29;20196;-79
2023/12/29 01:06:41;;;;;;;3.33;2.30;;;;;;;-145.69;54.76;52194.88;4918735;29;20240;-79
2023/12/29 01:09:11;;;;;;;3.33;2.43;;;;;;;-145.69;54.36;52198.81;4918417;29;20204;-79
2023/12/29 01:11:40;;;;;;;4.90;2.67;;;;;;;-145.69;54.03;52214.66;4919102;29;20212;-79
2023/12/29 01:14:06;;;;;;;3.30;2.23;;;;;;;-145.69;54.56;52216.66;4918472;29;20655;-79
2023/12/29 01:16:33;;;;;;;5.33;2.20;;;;;;;-145.69;54.83;52230.50;4918416;29;20228;-79
2023/12/29 01:19:02;;;;;;;4.43;2.40;;;;;;;-145.69;54.31;52196.84;4918800;29;20208;-80
2023/12/29 01:21:28;;;;;;;5.03;1.90;;;;;;;-145.69;53.46;52206.75;4907986;29;20210;-79
2023/12/29 01:23:55;;;;;;;4.47;1.73;;;;;;;-145.69;54.30;52202.78;4900062;29;20205;-79
2023/12/29 01:26:23;;;;;;;3.23;2.10;;;;;;;-145.69;54.01;52202.78;4899847;29;20244;-79
2023/12/29 01:28:49;;;;;;;3.43;2.33;;;;;;;-145.69;54.69;52232.50;4905360;29;20220;-80
2023/12/29 01:31:16;;;;;;;3.60;2.10;;;;;;;-145.69;54.44;52238.44;4918182;29;20199;-81
2023/12/29 01:33:42;;;;;;;3.27;2.17;;;;;;;-145.69;55.52;52186.94;4917921;29;20656;-82
2023/12/29 01:36:09;;;;;;;3.57;2.10;;;;;;;-145.69;55.05;52238.44;4918226;29;20197;-80
2023/12/29 01:38:35;;;;;;;3.80;2.60;;;;;;;-145.69;54.96;52190.91;4917900;29;20204;-80
2023/12/29 01:41:07;;;;;;;3.93;2.50;;;;;;;-145.69;55.32;52214.66;4918635;29;20231;-80
2023/12/29 01:43:38;;;;;;;4.37;2.23;;;;;;;-145.69;55.38;52196.84;4918412;29;20664;-80
2023/12/29 01:46:05;;;;;;;4.40;2.10;;;;;;;-145.69;54.92;52214.66;4918380;29;20232;-80
2023/12/29 01:48:32;;;;;;;3.90;2.00;;;;;;;-145.69;55.00;52226.53;4918205;29;20405;-81
2023/12/29 01:50:59;;;;;;;3.63;2.37;;;;;;;-145.69;55.22;52192.88;4918344;29;20608;-81
2023/12/29 01:53:26;;;;;;;4.40;2.40;;;;;;;-145.69;55.67;52208.72;4918267;29;20656;-80
2023/12/29 01:55:52;;;;;;;4.47;2.80;;;;;;;-145.69;55.75;52198.81;4917216;29;20302;-80
2023/12/29 01:58:20;;;;;;;4.93;2.27;;;;;;;-145.69;56.55;52204.75;4918086;29;20682;-80
2023/12/29 02:00:50;;;;;;;3.67;2.10;;;;;;;-145.69;56.27;52214.66;4917862;29;20208;-82
2023/12/29 02:03:16;;;;;;;4.10;2.07;;;;;;;-145.69;56.29;52224.56;4917907;29;20654;-81
2023/12/29 02:05:44;;;;;;;2.90;2.20;;;;;;;-145.69;56.02;52212.69;4917798;29;20699;-80
2023/12/29 02:08:12;;;;;;;3.80;2.70;;;;;;;-145.69;56.38;52204.75;4917961;29;20200;-80
2023/12/29 02:10:40;;;;;;;4.27;2.27;;;;;;;-145.69;55.52;52208.72;4917776;29;20704;-80
2023/12/29 02:13:10;;;;;;;4.50;2.13;;;;;;;-145.69;55.39;52204.75;4917894;29;20208;-80
2023/12/29 02:15:37;;;;;;;6.43;2.50;;;;;;;-145.69;55.84;52214.66;4917247;29;20203;-80
2023/12/29 02:18:10;;;;;;;7.10;2.20;;;;;;;-145.69;54.94;52230.50;4917841;29;20568;-80
2023/12/29 02:20:36;;;;;;;2.53;2.00;;;;;;;-145.69;54.94;52214.66;4917550;29;20289;-80
2023/12/29 02:23:03;;;;;;;4.63;1.93;;;;;;;-145.69;54.66;52204.75;4916847;29;20691;-81
2023/12/29 02:25:31;;;;;;;4.63;2.10;;;;;;;-145.69;54.99;52188.91;4917749;29;20200;-81
2023/12/29 02:28:02;;;;;;;3.53;2.10;;;;;;;-145.69;54.48;52202.78;4917827;29;20215;-81
2023/12/29 02:30:38;;;;;;;5.87;2.17;;;;;;;-145.69;54.91;52214.66;4917632;29;20230;-81
2023/12/29 02:33:11;;;;;;;2.83;2.10;;;;;;;-145.69;54.91;52198.81;4898484;29;20238;-81
2023/12/29 02:35:42;;;;;;;3.73;2.40;;;;;;;-145.69;54.70;52226.53;4914351;29;20310;-82
2023/12/29 02:38:08;;;;;;;3.67;2.03;;;;;;;-145.69;54.65;52218.63;4917662;29;20204;-80
2023/12/29 02:40:36;;;;;;;5.30;2.53;;;;;;;-145.69;55.42;52202.78;4917531;29;20211;-81
2023/12/29 02:43:03;;;;;;;2.20;1.67;;;;;;;-145.69;55.16;52248.34;4917102;29;20216;-81
2023/12/29 02:45:33;;;;;;;3.00;1.90;;;;;;;-145.69;54.89;52188.91;4917365;29;20200;-81
2023/12/29 02:47:59;;;;;;;3.00;1.97;;;;;;;-145.69;54.82;52196.84;4916896;29;20235;-81
2023/12/29 02:50:26;;;;;;;3.97;2.00;;;;;;;-145.69;54.86;52210.72;4916709;29;20660;-80
2023/12/29 02:52:54;;;;;;;2.63;1.80;;;;;;;-145.69;55.26;52224.56;4916926;29;20204;-80
2023/12/29 02:55:21;;;;;;;5.47;1.70;;;;;;;-145.69;55.39;52190.91;4917204;29;20208;-80
2023/12/29 02:57:50;;;;;;;4.20;2.20;;;;;;;-145.69;54.74;52214.66;4917277;29;20207;-80
2023/12/29 03:00:17;;;;;;;3.67;2.27;;;;;;;-145.69;55.21;52218.63;4917015;29;20271;-80
2023/12/29 03:02:44;;;;;;;4.20;1.97;;;;;;;-145.69;55.57;52198.81;4916955;29;20208;-80
2023/12/29 03:05:10;;;;;;;2.73;1.90;;;;;;;-145.69;55.21;52238.44;4916708;29;20629;-80
2023/12/29 03:07:37;;;;;;;2.67;1.80;;;;;;;-145.69;55.57;52230.50;4916807;29;20232;-80
2023/12/29 03:10:04;;;;;;;3.20;1.50;;;;;;;-145.69;55.34;52194.88;4916756;29;20243;-80
2023/12/29 03:12:31;;;;;;;2.73;1.80;;;;;;;-145.69;55.44;52214.66;4916762;29;20199;-80
2023/12/29 03:14:59;;;;;;;2.80;1.90;;;;;;;-145.69;54.75;52186.94;4916849;29;20303;-79
2023/12/29 03:17:28;;;;;;;3.27;2.00;;;;;;;-145.69;55.32;52210.72;4917082;29;20208;-80
2023/12/29 03:19:54;;;;;;;3.47;1.83;;;;;;;-145.69;55.31;52181.00;4916801;29;20207;-79
2023/12/29 03:22:21;;;;;;;2.20;1.50;;;;;;;-145.69;55.34;52230.50;4916757;29;20263;-79
2023/12/29 03:24:48;;;;;;;2.00;1.67;;;;;;;-145.69;55.33;52181.00;4915938;29;20231;-80
2023/12/29 03:27:14;;;;;;;4.00;1.97;;;;;;;-145.69;55.28;52236.44;4916800;29;20231;-80
2023/12/29 03:29:42;;;;;;;2.03;1.70;;;;;;;-145.69;55.56;52196.84;4911293;29;20200;-79
2023/12/29 03:32:13;;;;;;;4.13;2.20;;;;;;;-145.69;55.04;52194.88;4897883;29;20237;-80
2023/12/29 03:34:39;;;;;;;2.07;1.53;;;;;;;-145.69;55.42;52216.66;4907896;29;20204;-80
2023/12/29 03:37:05;;;;;;;5.30;1.90;;;;;;;-145.69;55.64;52181.00;4916669;29;20200;-80
2023/12/29 03:39:35;;;;;;;2.53;1.77;;;;;;;-145.69;56.04;52214.66;4916519;29;20204;-79
2023/12/29 03:42:01;;;;;;;2.57;1.80;;;;;;;-145.69;56.00;52186.94;4916554;29;20216;-80
2023/12/29 03:44:28;;;;;;;3.37;1.90;;;;;;;-145.69;56.02;52190.91;4916438;29;20207;-79
2023/12/29 03:46:54;;;;;;;4.87;1.83;;;;;;;-145.69;56.32;52202.78;4916507;29;20224;-79
2023/12/29 03:49:22;;;;;;;2.67;1.80;;;;;;;-145.69;56.59;52234.47;4916628;29;20214;-80
2023/12/29 03:51:49;;;;;;;4.37;1.80;;;;;;;-145.69;55.98;52202.78;4916489;29;20636;-81
2023/12/29 03:54:17;;;;;;;5.73;1.70;;;;;;;-145.69;56.42;52206.75;4916414;29;20211;-81
2023/12/29 03:56:43;;;;;;;2.60;1.93;;;;;;;-145.69;56.03;52181.00;4916395;29;20247;-81
2023/12/29 03:59:12;;;;;;;2.33;1.90;;;;;;;-145.69;56.38;52202.78;4916460;29;20231;-80
2023/12/29 04:01:38;;;;;;;2.50;1.70;;;;;;;-145.69;56.58;52208.72;4916629;29;20299;-80
2023/12/29 04:04:05;;;;;;;3.33;1.77;;;;;;;-145.69;56.54;52206.75;4916243;29;20694;-80
2023/12/29 04:06:32;;;;;;;4.23;1.90;;;;;;;-145.69;56.77;52222.59;4915422;29;20228;-80
2023/12/29 04:09:03;;;;;;;3.03;1.70;;;;;;;-145.69;56.51;52220.59;4915633;29;20204;-80
2023/12/29 04:11:29;;;;;;;3.00;1.87;;;;;;;-145.69;57.04;52216.66;4916089;29;20295;-80
2023/12/29 04:13:56;;;;;;;2.67;1.60;;;;;;;-145.69;57.34;52190.91;4916402;29;20263;-79
2023/12/29 04:16:23;;;;;;;2.40;1.50;;;;;;;-145.69;56.88;52190.91;4916258;29;20591;-80
2023/12/29 04:18:49;;;;;;;4.20;1.80;;;;;;;-145.69;57.35;52206.75;4916512;29;20557;-80
2023/12/29 04:21:16;;;;;;;2.80;1.60;;;;;;;-145.69;57.75;52220.59;4915999;29;20212;-80
2023/12/29 04:23:43;;;;;;;3.23;1.70;;;;;;;-145.69;57.45;52210.72;4915993;29;20196;-80
2023/12/29 04:26:10;;;;;;;2.10;1.70;;;;;;;-145.69;57.80;52202.78;4915928;29;20533;-80
2023/12/29 04:28:37;;;;;;;2.90;1.60;;;;;;;-145.69;58.53;52202.78;4915908;29;20671;-80
2023/12/29 04:31:04;;;;;;;2.70;1.67;;;;;;;-145.69;58.08;52216.66;4916084;29;20557;-80
2023/12/29 04:33:30;;;;;;;4.37;1.77;;;;;;;-145.69;58.41;52181.00;4916024;29;20660;-80
2023/12/29 04:35:57;;;;;;;1.80;1.60;;;;;;;-145.69;57.91;52214.66;4917639;29;20243;-79
2023/12/29 04:38:23;;;;;;;1.60;1.40;;;;;;;-145.69;58.08;52214.66;4919214;29;20215;-80
2023/12/29 04:40:51;;;;;;;2.57;1.70;;;;;;;-145.69;58.03;52206.75;4919709;29;20260;-79
2023/12/29 04:43:20;;;;;;;2.70;1.87;;;;;;;-145.69;58.13;52194.88;4919417;29;20220;-80
2023/12/29 04:45:47;;;;;;;4.77;1.80;;;;;;;-145.69;57.87;52210.72;4919444;29;20553;-80
2023/12/29 04:48:13;;;;;;;2.00;1.60;;;;;;;-145.69;57.13;52190.91;4919073;29;20267;-80
2023/12/29 04:50:40;;;;;;;4.67;1.80;;;;;;;-145.69;57.12;52210.72;4919292;29;20210;-80
2023/12/29 04:53:10;;;;;;;3.07;2.00;;;;;;;-145.69;56.94;52208.72;4919142;29;20295;-80
2023/12/29 04:55:36;;;;;;;2.17;1.53;;;;;;;-145.69;57.21;52220.59;4919452;29;20204;-80
2023/12/29 04:58:04;;;;;;;2.60;1.67;;;;;;;-145.69;57.35;52212.69;4918998;29;20272;-80
2023/12/29 05:00:31;;;;;;;2.47;1.60;;;;;;;-145.69;57.30;52196.84;4919209;29;20211;-80
2023/12/29 05:02:57;;;;;;;2.03;1.60;;;;;;;-145.69;58.15;52210.72;4918951;29;20212;-80
2023/12/29 05:05:26;;;;;;;1.70;1.50;;;;;;;-145.69;58.40;52204.75;4918408;29;20205;-80
2023/12/29 05:07:53;;;;;;;3.27;1.30;;;;;;;-145.69;58.22;52238.44;4918804;29;20228;-79
2023/12/29 05:10:19;;;;;;;3.13;1.70;;;;;;;-145.69;58.80;52204.75;4919061;29;20236;-82
2023/12/29 05:12:48;;;;;;;3.93;1.50;;;;;;;-145.69;58.85;52230.50;4918767;29;20204;-81
2023/12/29 05:15:16;;;;;;;1.87;1.57;;;;;;;-145.69;59.26;52212.69;4919043;29;20212;-81
2023/12/29 05:17:42;;;;;;;2.50;1.43;;;;;;;-145.69;59.39;52202.78;4919015;29;20204;-80
2023/12/29 05:20:10;;;;;;;2.93;1.47;;;;;;;-145.69;59.26;52220.59;4918785;29;20211;-80
2023/12/29 05:22:37;;;;;;;1.87;1.70;;;;;;;-145.69;59.29;52206.75;4918893;29;20208;-80
2023/12/29 05:25:04;;;;;;;1.63;1.50;;;;;;;-145.69;58.98;52214.66;4918520;29;20291;-80
2023/12/29 05:27:31;;;;;;;2.23;1.50;;;;;;;-145.69;59.39;52214.66;4918698;29;20710;-80
2023/12/29 05:29:59;;;;;;;2.47;1.50;;;;;;;-145.69;59.19;52210.72;4917987;29;20204;-80
2023/12/29 05:32:27;;;;;;;1.80;1.57;;;;;;;-145.69;58.96;52204.75;4913837;29;20200;-81
2023/12/29 05:34:54;;;;;;;2.93;1.50;;;;;;;-145.69;58.78;52214.66;4918391;29;20247;-80
2023/12/29 05:37:25;;;;;;;1.77;1.37;;;;;;;-145.69;58.73;52194.88;4918539;29;20660;-80
2023/12/29 05:39:53;;;;;;;1.60;1.30;;;;;;;-145.69;58.56;52230.50;4918108;29;20208;-80
2023/12/29 05:42:20;;;;;;;1.87;1.40;;;;;;;-145.69;58.55;52226.53;4918603;29;20692;-80
2023/12/29 05:44:46;;;;;;;1.53;1.40;;;;;;;-145.69;58.07;52206.75;4918719;29;20200;-80
2023/12/29 05:47:16;;;;;;;3.90;1.50;;;;;;;-145.69;58.41;52202.78;4917630;29;20244;-80
2023/12/29 05:49:47;;;;;;;1.93;1.50;;;;;;;-145.69;58.32;52222.59;4918393;29;20218;-80
2023/12/29 05:52:13;;;;;;;1.80;1.40;;;;;;;-145.69;58.23;52202.78;4918808;29;20302;-81
2023/12/29 05:54:39;;;;;;;2.20;1.67;;;;;;;-145.69;58.38;52198.81;4918293;29;20393;-81
2023/12/29 05:57:08;;;;;;;1.97;1.40;;;;;;;-145.69;57.46;52246.34;4917970;29;20208;-80
2023/12/29 05:59:39;;;;;;;1.83;1.50;;;;;;;-145.69;57.56;52194.88;4918090;29;20246;-79
2023/12/29 06:02:08;;;;;;;1.53;1.40;;;;;;;-145.69;57.48;52218.63;4918100;29;20200;-80
2023/12/29 06:04:35;;;;;;;1.90;1.70;;;;;;;-145.69;57.47;52202.78;4915542;29;20207;-81
2023/12/29 06:07:03;;;;;;;2.43;1.40;;;;;;;-145.69;57.35;52190.91;4917775;29;20236;-81
2023/12/29 06:09:29;;;;;;;3.60;1.70;;;;;;;-145.69;57.34;52242.38;4917896;29;20236;-80
2023/12/29 06:11:56;;;;;;;2.07;1.47;;;;;;;-145.69;57.19;52208.72;4918059;29;20200;-80
2023/12/29 06:14:23;;;;;;;3.10;1.37;;;;;;;-145.69;57.30;52167.13;4917638;29;20215;-79
2023/12/29 06:16:50;;;;;;;2.47;1.60;;;;;;;-145.69;57.15;52226.53;4917818;29;20292;-80
2023/12/29 06:19:16;;;;;;;3.07;1.67;;;;;;;-145.69;57.12;52256.25;4917971;29;20211;-81
2023/12/29 06:21:43;;;;;;;4.30;1.27;;;;;;;-145.69;56.80;52179.03;4917791;29;20208;-80
2023/12/29 06:24:12;;;;;;;2.33;1.50;;;;;;;-145.69;56.50;52196.84;4917550;29;20203;-80
2023/12/29 06:26:41;;;;;;;1.67;1.17;;;;;;;-145.69;56.89;52192.88;4917328;29;20259;-79
2023/12/29 06:29:08;;;;;;;2.10;1.40;;;;;;;-145.69;56.35;52238.44;4917624;29;20323;-79
2023/12/29 06:31:34;;;;;;;3.27;1.43;;;;;;;-145.69;56.49;52210.72;4917884;29;20268;-79
2023/12/29 06:34:01;;;;;;;2.93;1.10;;;;;;;-145.69;56.27;52194.88;4917179;29;20290;-80
2023/12/29 06:36:28;;;;;;;4.97;1.63;;;;;;;-145.69;55.95;52214.66;4917380;29;20200;-80
2023/12/29 06:38:55;;;;;;;3.30;1.40;;;;;;;-145.69;56.47;52190.91;4917493;29;20236;-79
2023/12/29 06:41:24;;;;;;;2.00;1.43;;;;;;;-145.69;56.92;52234.47;4917229;29;20598;-80
2023/12/29 06:43:50;;;;;;;1.40;1.03;;;;;;;-145.69;57.78;52234.47;4917590;29;20246;-80
2023/12/29 06:46:17;;;;;;;1.90;1.40;;;;;;;-145.69;57.81;52206.75;4917406;29;20204;-80
2023/12/29 06:48:44;;;;;;;1.93;1.30;;;;;;;-145.69;57.44;52206.75;4917317;29;20238;-80
2023/12/29 06:51:16;;;;;;;2.60;1.40;;;;;;;-145.69;57.36;52220.59;4917283;29;20212;-80
2023/12/29 06:53:42;;;;;;;1.73;1.20;;;;;;;-145.69;56.55;52200.81;4917056;29;20207;-80
2023/12/29 06:56:13;;;;;;;1.90;1.10;;;;;;;-145.69;56.75;52218.63;4917417;29;20235;-80
2023/12/29 06:58:41;;;;;;;2.40;1.50;;;;;;;-145.69;56.19;52212.69;4916545;29;20208;-80
2023/12/29 07:01:08;;;;;;;2.50;1.60;;;;;;;-145.69;56.07;52236.44;4917017;29;20283;-80
2023/12/29 07:03:35;;;;;;;1.57;1.33;;;;;;;-145.69;55.72;52196.84;4917111;29;20216;-80
2023/12/29 07:06:02;;;;;;;1.73;1.27;;;;;;;-145.69;56.25;52190.91;4916823;29;20260;-80
2023/12/29 07:08:28;;;;;;;2.53;1.57;;;;;;;-145.69;55.49;52214.66;4916989;29;20232;-80
2023/12/29 07:10:55;;;;;;;1.90;1.40;;;;;;;-145.69;55.87;52194.88;4916506;29;20232;-79
2023/12/29 07:13:24;;;;;;;2.67;1.30;;;;;;;-145.69;55.87;52210.72;4916857;29;20204;-80
2023/12/29 07:15:51;;;;;;;1.80;1.30;;;;;;;-145.69;56.08;52186.94;4917032;29;20238;-79
2023/12/29 07:18:18;;;;;;;1.53;1.40;;;;;;;-145.69;55.90;52186.94;4916835;29;20212;-80
2023/12/29 07:20:44;;;;;;;2.20;1.47;;;;;;;-145.69;56.25;52228.53;4916836;29;20668;-80
2023/12/29 07:23:11;;;;;;;2.07;1.20;;;;;;;-145.69;57.05;52192.88;4917120;29;20208;-81
2023/12/29 07:25:37;;;;;;;1.60;1.30;;;;;;;-145.69;56.88;52212.69;4916130;29;20207;-80
2023/12/29 07:28:04;;;;;;;1.37;1.20;;;;;;;-145.69;56.79;52220.59;4916821;29;20243;-81
2023/12/29 07:30:31;;;;;;;12.87;2.83;;;;;;;-145.69;56.32;52212.69;4916796;29;20592;-80
2023/12/29 07:32:58;;;;;;;3.88;2.10;;;;;;;-145.69;56.96;52212.69;4916484;29;20454;-80
2023/12/29 07:35:25;;;;;;;4.30;2.70;;;;;;;-145.69;56.67;52246.34;4916168;29;20206;-80
2023/12/29 07:37:51;;;;;;;6.80;3.63;;;;;;;-145.69;57.12;52200.81;4913871;29;20205;-80
2023/12/29 07:40:18;;;;;;;4.37;2.33;;;;;;;-145.69;57.51;52228.53;4916610;29;20211;-80
2023/12/29 07:42:48;;;;;;;2.40;2.10;;;;;;;-145.69;57.22;52202.78;4916394;29;20204;-80
2023/12/29 07:45:15;;;;;;;9.27;5.57;;;;;;;-145.69;57.30;52194.88;4916788;29;20200;-80
2023/12/29 07:47:42;;;;;;;3.50;2.70;;;;;;;-145.69;57.99;52224.56;4916448;29;20231;-80
2023/12/29 07:50:10;;;;;;;1.40;1.30;;;;;;;-145.69;57.97;52220.59;4916343;29;20208;-80
2023/12/29 07:52:37;;;;;;;1.30;1.20;;;;;;;-145.69;58.11;52208.72;4916603;29;20227;-80
2023/12/29 07:55:03;;;;;;;1.63;1.40;;;;;;;-145.69;57.74;52242.38;4915784;29;20676;-80
2023/12/29 07:57:30;;;;;;;1.83;1.13;;;;;;;-145.69;57.69;52202.78;4916000;29;20228;-79
2023/12/29 07:59:59;;;;;;;1.60;1.40;;;;;;;-145.69;57.65;52242.38;4915592;29;20200;-80
2023/12/29 08:02:25;;;;;;;1.40;1.20;;;;;;;-145.69;57.55;52202.78;4916228;29;20291;-79
2023/12/29 08:04:52;;;;;;;2.10;1.50;;;;;;;-145.69;57.93;52208.72;4916604;29;20204;-79
2023/12/29 08:07:20;;;;;;;1.93;1.50;;;;;;;-145.69;58.01;52188.91;4916337;29;20239;-80
2023/12/29 08:09:46;;;;;;;3.90;1.43;;;;;;;-145.69;58.52;52228.53;4917325;29;20240;-79
2023/12/29 08:12:13;;;;;;;1.97;1.30;;;;;;;-145.69;58.36;52254.28;4920202;29;20219;-80
2023/12/29 08:14:42;;;;;;;1.33;1.20;;;;;;;-145.69;58.80;52214.66;4920174;29;20208;-80
2023/12/29 08:17:08;;;;;;;1.77;1.23;;;;;;;-145.69;58.83;52230.50;4920016;29;20575;-79
2023/12/29 08:19:36;;;;;;;1.43;1.10;;;;;;;-145.69;58.81;52214.66;4920191;29;20210;-80
2023/12/29 08:22:05;;;;;;;1.07;1.03;;;;;;;-145.69;59.08;52202.78;4920098;29;20204;-79
2023/12/29 08:24:33;;;;;;;0.80;0.80;;;;;;;-145.69;58.77;52230.50;4919914;29;20283;-80
2023/12/29 08:27:00;;;;;;;1.43;1.17;;;;;;;-145.69;58.78;52206.75;4919942;29;20251;-80
2023/12/29 08:29:26;;;;;;;1.23;1.10;;;;;;;-145.69;58.61;52214.66;4919472;29;20224;-79
2023/12/29 08:31:53;;;;;;;1.97;1.50;;;;;;;-145.69;58.05;52200.81;4919759;29;20200;-80
2023/12/29 08:34:20;;;;;;;2.03;1.50;;;;;;;-145.69;57.81;52198.81;4919604;29;20267;-80
2023/12/29 08:36:48;;;;;;;1.20;1.03;;;;;;;-145.69;57.83;52218.63;4919652;29;20201;-79
2023/12/29 08:39:14;;;;;;;4.00;1.20;;;;;;;-145.69;57.64;52236.44;4919248;29;20200;-79
2023/12/29 08:41:42;;;;;;;1.50;1.20;;;;;;;-145.69;57.21;52194.88;4919345;29;20208;-79
2023/12/29 08:44:09;;;;;;;2.47;1.60;;;;;;;-145.69;57.07;52226.53;4919113;29;20212;-80
2023/12/29 08:46:35;;;;;;;3.10;1.70;;;;;;;-145.69;57.09;52222.59;4919656;29;20208;-80
2023/12/29 08:49:05;;;;;;;8.53;3.17;;;;;;;-145.69;56.86;52188.91;4919086;29;20239;-79
2023/12/29 08:51:32;;;;;;;11.37;4.37;;;;;;;-145.69;56.64;52216.66;4919318;29;20205;-79
2023/12/29 08:53:58;;;;;;;3.20;1.80;;;;;;;-145.69;56.14;52206.75;4919440;29;20199;-79
2023/12/29 08:56:29;;;;;;;1.30;1.00;;;;;;;-145.69;55.40;52214.66;4919129;29;20204;-79
2023/12/29 08:58:56;;;;;;;2.13;1.10;;;;;;;-145.69;54.81;52210.72;4918741;29;20303;-79
2023/12/29 09:01:23;;;;;;;1.33;1.00;;;;;;;-145.69;53.35;52200.81;4918350;29;20212;-79
2023/12/29 09:03:49;;;;;;;1.00;0.90;;;;;;;-145.69;53.87;52202.78;4918826;29;20193;-80
2023/12/29 09:06:21;;;;;;;1.30;1.07;;;;;;;-145.69;52.82;52188.91;4918810;29;20192;-81
2023/12/29 09:08:48;;;;;;;2.40;1.00;;;;;;;-145.69;53.11;52184.97;4918710;29;20235;-79
2023/12/29 09:11:15;;;;;;;0.98;0.90;;;;;;;-145.69;51.58;52204.75;4918715;29;20275;-79
2023/12/29 09:13:41;;;;;;;3.22;1.13;;;;;;;-145.69;50.78;52171.09;4919265;29;20215;-80
2023/12/29 09:16:10;;;;;;;1.40;0.90;;;;;;;-145.69;50.68;52165.16;4918839;29;20205;-78
2023/12/29 09:18:36;;;;;;;1.02;0.93;;;;;;;-145.69;50.08;52179.03;4919024;29;20678;-79
2023/12/29 09:21:05;;;;;;;2.10;0.90;;;;;;;-145.69;50.44;52171.09;4918301;29;20211;-78
2023/12/29 09:23:32;;;;;;;1.00;0.90;;;;;;;-145.69;49.95;52184.97;4918443;29;20301;-78
2023/12/29 09:25:58;;;;;;;1.55;1.08;;;;;;;-145.69;50.62;52196.84;4918384;29;20291;-79
2023/12/29 09:28:25;;;;;;;1.38;0.98;;;;;;;-145.69;50.49;52167.13;4918722;29;20711;-82
2023/12/29 09:30:51;;;;;;;0.60;0.60;;;;;;;-145.69;50.85;52190.91;4918698;29;20208;-80
2023/12/29 09:33:19;;;;;;;1.15;0.80;;;;;;;-145.69;51.33;52198.81;4917998;29;20227;-79
2023/12/29 09:35:46;;;;;;;1.67;0.80;;;;;;;-145.69;50.91;52161.19;4918602;29;20719;-79
2023/12/29 09:38:12;;;;;;;3.07;1.03;;;;;;;-145.69;50.75;52167.13;4918851;29;20215;-80
2023/12/29 09:40:39;;;;;;;1.58;1.05;;;;;;;-145.69;51.11;52171.09;4918339;29;20216;-79
2023/12/29 09:43:06;;;;;;;1.67;1.00;;;;;;;-145.69;50.98;52155.25;4918595;29;20200;-79
2023/12/29 09:45:34;;;;;;;0.75;0.70;;;;;;;-145.69;49.94;52171.09;4917921;29;20204;-79
2023/12/29 09:48:03;;;;;;;0.95;0.75;;;;;;;-145.69;50.71;52175.06;4913717;29;20204;-81
2023/12/29 09:50:33;;;;;;;1.00;0.90;;;;;;;-145.69;50.89;52151.28;4918487;29;20200;-79
2023/12/29 09:53:01;;;;;;;1.90;0.80;;;;;;;-145.69;50.54;52175.06;4917975;29;20212;-80
2023/12/29 09:55:28;;;;;;;1.17;0.90;;;;;;;-145.69;49.53;52202.78;4917354;29;20648;-79
2023/12/29 09:57:58;;;;;;;1.00;1.00;;;;;;;-145.69;48.36;52190.91;4918063;29;20204;-79
2023/12/29 10:00:26;;;;;;;1.00;0.90;;;;;;;-145.69;48.90;52186.94;4918375;29;20575;-79
2023/12/29 10:02:53;;;;;;;1.02;0.85;;;;;;;-145.69;48.79;52177.03;4917852;29;20208;-80
2023/12/29 10:05:20;;;;;;;1.23;1.00;;;;;;;-145.69;48.19;52155.25;4917998;29;20740;-79
2023/12/29 10:07:48;;;;;;;1.95;0.90;;;;;;;-145.69;48.10;52163.19;4917747;29;20200;-79
2023/12/29 10:10:16;;;;;;;1.00;0.88;;;;;;;-145.69;48.06;52133.47;4917928;29;20390;-79
2023/12/29 10:12:43;;;;;;;0.85;0.85;;;;;;;-145.69;48.15;52181.00;4918162;29;20211;-79
2023/12/29 10:15:13;;;;;;;1.45;1.10;;;;;;;-145.69;47.81;52192.88;4918179;29;20212;-78
2023/12/29 10:17:55;;;;;;;0.77;0.77;;;;;;;-145.69;47.91;52159.22;4917947;29;20208;-79
2023/12/29 10:20:34;;;;;;;2.55;0.90;;;;;;;-145.69;47.70;52171.09;4918164;29;20208;-79
2023/12/29 10:23:08;;;;;;;1.00;0.90;;;;;;;-145.69;47.84;52167.13;4917978;29;20208;-80
2023/12/29 10:25:38;;;;;;;2.55;0.95;;;;;;;-145.69;48.68;52186.94;4917685;29;20564;-79
2023/12/29 10:28:06;;;;;;;1.02;0.93;;;;;;;-145.69;48.45;52186.94;4915843;29;20234;-78
2023/12/29 10:30:33;;;;;;;1.10;0.93;;;;;;;-145.69;48.46;52204.75;4917521;29;20230;-78
2023/12/29 10:33:02;;;;;;;1.00;0.90;;;;;;;-145.69;47.73;52179.03;4917556;29;20200;-78
2023/12/29 10:35:30;;;;;;;1.00;0.95;;;;;;;-145.69;47.98;52155.25;4917626;29;20200;-77
2023/12/29 10:38:09;;;;;;;1.52;0.93;;;;;;;-145.69;48.06;52169.13;4917584;29;20196;-79
2023/12/29 10:40:36;;;;;;;1.50;1.10;;;;;;;-145.69;48.22;52192.88;4917520;29;20204;-80
2023/12/29 10:43:06;;;;;;;1.25;1.00;;;;;;;-145.69;48.19;52175.06;4917215;29;20200;-80
2023/12/29 10:45:36;;;;;;;1.40;1.00;;;;;;;-145.69;48.58;52149.31;4917451;29;20208;-80
2023/12/29 10:48:03;;;;;;;1.77;1.00;;;;;;;-145.69;48.47;52181.00;4917343;29;20215;-80
2023/12/29 10:50:30;;;;;;;1.17;1.05;;;;;;;-145.69;49.15;52179.03;4917223;29;20231;-80
2023/12/29 10:55:51;;;;;;;1.20;1.10;;;;;;;-145.69;48.75;52200.81;5131224;27;20552;-80
2023/12/29 10:58:19;;;;;;;1.98;0.93;;;;;;;-145.69;49.01;52141.41;5130618;27;20212;-80
2023/12/29 11:00:45;;;;;;;1.05;0.75;;;;;;;-145.69;49.79;52147.34;5131263;27;20196;-80
2023/12/29 11:03:16;;;;;;;2.75;0.80;;;;;;;-145.69;49.74;52200.81;5130964;27;20204;-80
2023/12/29 11:05:43;;;;;;;1.05;0.90;;;;;;;-145.69;49.46;52194.88;5130197;27;20193;-80
2023/12/29 11:08:16;;;;;;;1.13;1.00;;;;;;;-145.69;49.61;52190.91;5130990;27;20203;-80
2023/12/29 11:10:43;;;;;;;1.40;1.23;;;;;;;-145.69;50.59;52169.13;5130748;27;20196;-80
2023/12/29 11:13:13;;;;;;;1.00;0.90;;;;;;;-145.69;50.41;52151.28;5130854;27;20643;-80
2023/12/29 11:15:43;;;;;;;1.10;0.80;;;;;;;-145.69;50.34;52190.91;5130272;27;20246;-79
2023/12/29 11:18:13;;;;;;;1.73;1.02;;;;;;;-145.69;51.80;52179.03;5130638;27;20224;-79
2023/12/29 11:20:41;;;;;;;1.40;1.00;;;;;;;-145.69;51.59;52155.25;5130372;27;20197;-79